Startpagina
METAR-TAF:

METAR-TAF

Vliegvelden :

Barrancabermeja, Colombia

breedte: 07-01N, lengte: 073-48W, hoogte: 126 m

Actueel weer

Dit bericht is 47 minuten geleden gemaakt, om 21:00 UTC
Wind 3 kt uit het noordoosten
Temperatuur 34°C
Vochtigheid 60%
Druk 1006 hPa
Zicht 10 km of meer
Verspreide wolken op 1000 ft

METAR: SKEJ 202100Z 05003KT 9999 SCT010 34/25 A2971

Tijdstip: 16:47 (21:47 UTC)


TAF: ontbreekt

Waarnemingen en weersverwachtingen van meer dan 4000 vliegvelden (METAR en TAF).

De beschikbare stations zijn de gele en rode punten op de kaart.

Ga met uw muis naar het station om de naam te zien.

Klik dan om waarnemingen en weersverwachtingen te zien.

kaart wijzigen: klik op de groene knoppen met een zwart kruis om in te zoomen, op de groene knop met een streepje om uit te zoomen of op de groene pijlen voor aangrenzende kaarten.


METAR-TAF: